Time;durP1;ratioP1;P1;durP2;ratioP2;P2;SDS_P1;SDS_P2;PMS_P1;PMS_P2;Temp;Humidity;BMP_temperature;BMP_pressure;BME280_temperature;BME280_humidity;BME280_pressure;Samples;Min_cycle;Max_cycle;Signal;HPM_P1;HPM_P2
2022/09/29 00:00:00;;;;;;;3.57;2.43;;;9.20;91.90;;;;;;941895;147;27396;-78
2022/09/29 00:02:27;;;;;;;2.83;2.60;;;9.20;91.90;;;;;;918976;150;27424;-78
2022/09/29 00:04:53;;;;;;;2.53;2.33;;;9.10;92.00;;;;;;942991;147;27408;-78
2022/09/29 00:07:20;;;;;;;2.73;2.43;;;9.10;92.10;;;;;;918389;150;27371;-78
2022/09/29 00:09:46;;;;;;;3.03;2.37;;;9.10;92.20;;;;;;943238;147;27499;-78
2022/09/29 00:12:13;;;;;;;4.60;2.30;;;9.10;92.20;;;;;;919557;150;27440;-78
2022/09/29 00:14:40;;;;;;;2.47;2.30;;;9.00;92.20;;;;;;939301;147;27325;-79
2022/09/29 00:17:06;;;;;;;2.13;2.03;;;9.00;92.30;;;;;;919773;151;27404;-79
2022/09/29 00:19:33;;;;;;;3.60;2.50;;;9.00;92.50;;;;;;941860;147;27329;-78
2022/09/29 00:22:00;;;;;;;2.60;2.40;;;8.90;92.60;;;;;;917439;150;27405;-78
2022/09/29 00:24:26;;;;;;;2.90;2.70;;;8.90;92.50;;;;;;940869;147;27460;-78
2022/09/29 00:26:53;;;;;;;5.13;2.60;;;8.90;92.80;;;;;;918278;150;27373;-78
2022/09/29 00:29:19;;;;;;;3.87;2.60;;;8.80;92.90;;;;;;942327;147;27352;-79
2022/09/29 00:31:46;;;;;;;3.53;2.60;;;8.80;93.00;;;;;;918351;150;27301;-79
2022/09/29 00:34:12;;;;;;;2.97;2.67;;;8.80;93.10;;;;;;941656;147;27484;-78
2022/09/29 00:36:40;;;;;;;2.80;2.60;;;8.70;93.20;;;;;;919228;151;27471;-79
2022/09/29 00:39:05;;;;;;;4.87;2.30;;;8.70;93.30;;;;;;942982;147;27358;-78
2022/09/29 00:41:32;;;;;;;2.50;2.30;;;8.70;93.30;;;;;;919395;150;27426;-78
2022/09/29 00:43:59;;;;;;;2.50;2.30;;;8.60;93.40;;;;;;942129;147;27356;-79
2022/09/29 00:46:37;;;;;;;2.50;2.30;;;8.60;93.50;;;;;;917494;150;27413;-79
2022/09/29 00:49:07;;;;;;;2.70;2.50;;;8.50;93.60;;;;;;941794;147;27444;-79
2022/09/29 00:51:33;;;;;;;2.30;2.10;;;8.50;93.80;;;;;;938007;147;27308;-79
2022/09/29 00:54:00;;;;;;;2.40;2.20;;;8.50;94.10;;;;;;935123;149;27343;-79
2022/09/29 00:56:27;;;;;;;2.87;2.57;;;8.40;94.50;;;;;;934645;149;27319;-78
2022/09/29 00:58:56;;;;;;;2.50;2.30;;;8.50;95.00;;;;;;935434;149;27397;-78
2022/09/29 01:01:22;;;;;;;3.30;2.40;;;8.50;95.40;;;;;;941452;147;27403;-78
2022/09/29 01:03:49;;;;;;;3.10;2.43;;;8.50;95.70;;;;;;942757;147;27349;-79
2022/09/29 01:06:16;;;;;;;3.00;2.63;;;8.60;96.00;;;;;;944096;147;27432;-79
2022/09/29 01:08:42;;;;;;;4.10;2.37;;;8.60;96.10;;;;;;940892;147;27281;-79
2022/09/29 01:11:09;;;;;;;4.83;2.43;;;8.70;96.30;;;;;;938141;147;27823;-79
2022/09/29 01:13:35;;;;;;;2.67;2.47;;;8.70;96.30;;;;;;917027;150;27398;-78
2022/09/29 01:16:02;;;;;;;2.77;2.50;;;8.70;96.20;;;;;;922829;150;27320;-78
2022/09/29 01:18:29;;;;;;;2.50;2.30;;;8.80;96.10;;;;;;940210;147;27280;-78
2022/09/29 01:21:01;;;;;;;4.33;2.90;;;8.80;95.90;;;;;;918536;150;27460;-78
2022/09/29 01:23:46;;;;;;;3.93;2.47;;;8.80;95.90;;;;;;941330;147;28826;-78
2022/09/29 01:26:18;;;;;;;4.00;2.40;;;8.80;95.70;;;;;;910815;147;28193;-78
2022/09/29 01:28:47;;;;;;;2.40;2.20;;;8.80;95.50;;;;;;940593;146;28006;-79
2022/09/29 01:31:17;;;;;;;3.17;2.60;;;8.70;95.40;;;;;;938262;146;27467;-79
2022/09/29 01:34:00;;;;;;;2.67;2.47;;;8.70;95.40;;;;;;942073;146;27315;-79
2022/09/29 01:39:09;;;;;;;2.93;2.50;;;8.70;95.40;;;;;;975093;144;36564;-80
2022/09/29 01:41:44;;;;;;;3.73;2.60;;;8.60;95.60;;;;;;961006;147;28272;-80
2022/09/29 01:44:32;;;;;;;3.70;2.83;;;8.60;95.60;;;;;;932194;151;27373;-80
2022/09/29 01:47:01;;;;;;;2.43;2.23;;;8.60;95.80;;;;;;948712;147;27469;-80
2022/09/29 01:49:27;;;;;;;3.47;2.53;;;8.50;95.80;;;;;;933416;152;27334;-80
2022/09/29 01:51:59;;;;;;;4.80;2.70;;;8.50;96.00;;;;;;933301;150;27294;-79
2022/09/29 01:54:26;;;;;;;2.53;2.30;;;8.50;96.10;;;;;;932955;149;27350;-80
2022/09/29 01:57:07;;;;;;;3.20;2.50;;;8.50;96.30;;;;;;922407;151;27329;-80
2022/09/29 01:59:43;;;;;;;2.70;2.50;;;8.50;96.30;;;;;;912249;154;27462;-80
2022/09/29 02:02:09;;;;;;;2.97;2.73;;;8.40;96.30;;;;;;928141;153;27334;-80
2022/09/29 02:04:36;;;;;;;3.00;2.70;;;8.40;96.30;;;;;;927711;154;27365;-80
2022/09/29 02:07:03;;;;;;;2.83;2.53;;;8.40;96.40;;;;;;927052;153;27419;-79
2022/09/29 02:09:29;;;;;;;2.53;2.33;;;8.40;96.40;;;;;;928061;152;27415;-79
2022/09/29 02:11:56;;;;;;;3.97;2.67;;;8.40;96.60;;;;;;928408;154;27322;-80
2022/09/29 02:14:22;;;;;;;2.50;2.30;;;8.30;96.60;;;;;;928700;153;27291;-79
2022/09/29 02:16:49;;;;;;;2.43;2.23;;;8.30;96.70;;;;;;928643;153;27352;-79
2022/09/29 02:19:21;;;;;;;4.03;2.73;;;8.30;96.80;;;;;;927374;154;27424;-79
2022/09/29 02:21:48;;;;;;;3.67;2.50;;;8.30;97.20;;;;;;928347;151;27307;-80
2022/09/29 02:24:14;;;;;;;6.00;2.80;;;8.30;96.90;;;;;;928132;153;27376;-79
2022/09/29 02:26:41;;;;;;;7.10;3.10;;;8.20;96.90;;;;;;928240;153;27350;-80
2022/09/29 02:29:08;;;;;;;3.23;2.60;;;8.20;97.00;;;;;;928739;153;27353;-79
2022/09/29 02:31:34;;;;;;;3.13;2.80;;;8.20;97.20;;;;;;928372;153;27337;-79
2022/09/29 02:34:01;;;;;;;3.30;2.30;;;8.20;97.30;;;;;;927993;151;27391;-79
2022/09/29 02:36:42;;;;;;;3.87;2.47;;;8.20;97.40;;;;;;927990;153;27361;-79
2022/09/29 02:39:09;;;;;;;2.57;2.37;;;8.20;97.50;;;;;;940351;148;27396;-79
2022/09/29 02:41:41;;;;;;;4.10;2.70;;;8.20;97.40;;;;;;913720;153;27365;-78
2022/09/29 02:44:14;;;;;;;4.13;2.83;;;8.20;97.60;;;;;;937116;153;27479;-78
2022/09/29 02:46:49;;;;;;;4.67;3.03;;;8.20;97.50;;;;;;937372;150;27386;-78
2022/09/29 02:49:22;;;;;;;3.13;2.57;;;8.20;97.50;;;;;;922702;151;28012;-78
2022/09/29 02:51:48;;;;;;;2.83;2.50;;;8.20;97.60;;;;;;934847;151;28014;-78
2022/09/29 02:54:24;;;;;;;3.83;2.40;;;8.10;97.60;;;;;;933713;151;27483;-78
2022/09/29 02:57:05;;;;;;;3.00;2.70;;;8.20;97.80;;;;;;934988;150;27463;-79
2022/09/29 02:59:50;;;;;;;3.23;2.70;;;8.10;97.80;;;;;;934306;150;27791;-79
2022/09/29 03:02:17;;;;;;;4.20;2.47;;;8.10;97.80;;;;;;935019;151;27350;-79
2022/09/29 03:04:43;;;;;;;3.07;2.50;;;8.10;97.70;;;;;;933500;150;27280;-79
2022/09/29 03:07:10;;;;;;;2.93;2.63;;;8.10;97.80;;;;;;934673;150;27825;-79
2022/09/29 03:09:36;;;;;;;3.20;2.93;;;8.00;97.90;;;;;;934727;153;27439;-79
2022/09/29 03:12:03;;;;;;;2.77;2.40;;;8.00;98.10;;;;;;934642;150;27346;-79
2022/09/29 03:14:30;;;;;;;4.87;2.87;;;8.00;98.30;;;;;;934607;150;27392;-79
2022/09/29 03:16:56;;;;;;;3.30;2.70;;;8.00;98.40;;;;;;935387;150;27351;-78
2022/09/29 03:19:23;;;;;;;3.63;2.73;;;8.00;98.50;;;;;;934645;150;27933;-79
2022/09/29 03:21:49;;;;;;;3.07;2.77;;;8.00;98.60;;;;;;934596;150;27483;-79
2022/09/29 03:24:16;;;;;;;5.23;2.70;;;8.00;98.70;;;;;;933612;150;27323;-80
2022/09/29 03:26:42;;;;;;;4.43;2.40;;;8.00;98.70;;;;;;935051;150;27468;-80
2022/09/29 03:29:09;;;;;;;4.47;2.70;;;8.10;98.70;;;;;;934792;150;27346;-80
2022/09/29 03:31:36;;;;;;;3.40;2.57;;;8.00;98.70;;;;;;934564;153;27393;-81
2022/09/29 03:34:02;;;;;;;4.90;2.80;;;8.10;98.70;;;;;;934482;151;27467;-81
2022/09/29 03:36:29;;;;;;;2.70;2.50;;;8.10;98.80;;;;;;934610;151;27379;-81
2022/09/29 03:38:56;;;;;;;3.60;2.90;;;8.10;99.00;;;;;;934645;150;27398;-81
2022/09/29 03:41:22;;;;;;;3.43;2.43;;;8.10;99.10;;;;;;935128;150;27400;-81
2022/09/29 03:43:49;;;;;;;2.53;2.33;;;8.10;99.10;;;;;;934962;150;27314;-81
2022/09/29 03:46:15;;;;;;;3.47;2.60;;;8.10;99.20;;;;;;934930;150;27346;-81
2022/09/29 03:48:42;;;;;;;4.50;3.20;;;8.10;99.30;;;;;;934662;150;27389;-81
2022/09/29 03:51:09;;;;;;;5.00;2.77;;;8.10;99.30;;;;;;935460;150;27459;-81
2022/09/29 03:53:35;;;;;;;4.00;2.90;;;8.10;99.20;;;;;;934744;150;27836;-81
2022/09/29 03:56:02;;;;;;;3.10;2.60;;;8.10;99.30;;;;;;934926;150;27346;-80
2022/09/29 03:58:28;;;;;;;3.90;2.93;;;8.10;99.20;;;;;;933946;150;27407;-81
2022/09/29 04:00:55;;;;;;;3.30;3.00;;;8.10;99.30;;;;;;934405;153;27323;-79
2022/09/29 04:03:21;;;;;;;3.40;3.10;;;8.10;99.40;;;;;;933857;150;27711;-79
2022/09/29 04:05:48;;;;;;;2.70;2.50;;;8.10;99.50;;;;;;934400;151;27437;-79
2022/09/29 04:08:14;;;;;;;3.47;2.87;;;8.10;99.60;;;;;;934057;150;27354;-79
2022/09/29 04:10:41;;;;;;;2.63;2.43;;;8.10;99.80;;;;;;934295;150;27481;-79
2022/09/29 04:13:08;;;;;;;3.17;2.80;;;8.20;99.90;;;;;;934354;150;27378;-79
2022/09/29 04:15:34;;;;;;;4.27;2.70;;;8.20;99.90;;;;;;934428;150;27345;-79
2022/09/29 04:18:01;;;;;;;3.00;2.80;;;8.20;99.90;;;;;;934843;150;27488;-79
2022/09/29 04:20:27;;;;;;;2.90;2.60;;;8.20;99.90;;;;;;934565;151;27373;-79
2022/09/29 04:22:54;;;;;;;3.27;2.97;;;8.30;99.90;;;;;;934404;151;27456;-79
2022/09/29 04:25:21;;;;;;;2.77;2.57;;;8.30;99.90;;;;;;934897;151;27394;-79
2022/09/29 04:27:47;;;;;;;5.67;2.70;;;8.30;99.90;;;;;;934922;150;27416;-79
2022/09/29 04:30:14;;;;;;;2.90;2.70;;;8.30;99.90;;;;;;934400;150;27372;-79
2022/09/29 04:32:40;;;;;;;4.97;3.07;;;8.40;99.90;;;;;;934570;150;27346;-79
2022/09/29 04:35:08;;;;;;;2.80;2.60;;;8.40;99.90;;;;;;934704;151;27856;-79
2022/09/29 04:37:35;;;;;;;3.27;2.83;;;8.40;99.90;;;;;;934861;150;27459;-79
2022/09/29 04:40:02;;;;;;;3.40;3.10;;;8.50;99.90;;;;;;932890;150;27443;-79
2022/09/29 04:42:28;;;;;;;4.03;3.67;;;8.50;99.90;;;;;;931596;151;27442;-79
2022/09/29 04:44:55;;;;;;;3.80;2.60;;;8.60;99.90;;;;;;931277;151;27378;-79
2022/09/29 04:47:21;;;;;;;3.33;2.57;;;8.60;99.90;;;;;;932171;151;27421;-79
2022/09/29 04:49:48;;;;;;;3.00;2.70;;;8.60;99.90;;;;;;931307;151;27369;-79
2022/09/29 04:52:14;;;;;;;2.63;2.43;;;8.70;99.90;;;;;;931882;151;27375;-79
2022/09/29 04:54:41;;;;;;;3.10;2.90;;;8.70;99.90;;;;;;931535;151;27427;-79
2022/09/29 04:57:09;;;;;;;4.73;2.80;;;8.70;99.90;;;;;;932057;151;27386;-79
2022/09/29 04:59:34;;;;;;;2.70;2.50;;;8.80;99.90;;;;;;930947;151;27408;-79
2022/09/29 05:02:01;;;;;;;6.00;2.97;;;8.80;99.90;;;;;;931745;151;27363;-79
2022/09/29 05:04:27;;;;;;;3.03;2.83;;;8.80;99.90;;;;;;931813;151;27358;-79
2022/09/29 05:06:54;;;;;;;3.83;3.03;;;8.90;99.90;;;;;;931701;151;27451;-79
2022/09/29 05:09:21;;;;;;;3.17;2.87;;;8.90;99.90;;;;;;930847;151;27464;-79
2022/09/29 05:11:47;;;;;;;2.83;2.57;;;8.90;99.90;;;;;;931140;151;27382;-79
2022/09/29 05:14:14;;;;;;;3.30;2.70;;;8.90;99.90;;;;;;930954;154;27326;-79
2022/09/29 05:16:40;;;;;;;4.10;2.87;;;9.00;99.90;;;;;;925612;152;27351;-79
2022/09/29 05:19:07;;;;;;;6.27;3.17;;;9.00;99.90;;;;;;925206;152;27460;-79
2022/09/29 05:21:33;;;;;;;4.67;2.93;;;9.00;99.90;;;;;;925160;152;27328;-80
2022/09/29 05:24:00;;;;;;;5.13;3.30;;;9.00;99.90;;;;;;925127;152;29402;-81
2022/09/29 05:26:27;;;;;;;2.97;2.63;;;9.10;99.90;;;;;;924479;152;28340;-79
2022/09/29 05:28:53;;;;;;;3.83;2.43;;;9.10;99.90;;;;;;925602;152;27326;-79
2022/09/29 05:31:20;;;;;;;3.13;2.83;;;9.10;99.90;;;;;;924806;152;27439;-79
2022/09/29 05:33:47;;;;;;;3.50;3.00;;;9.20;99.90;;;;;;924594;152;27352;-79
2022/09/29 05:36:13;;;;;;;3.23;2.87;;;9.20;99.90;;;;;;924991;152;27407;-79
2022/09/29 05:38:40;;;;;;;3.90;3.03;;;9.20;99.90;;;;;;925684;152;27391;-79
2022/09/29 05:41:06;;;;;;;3.33;3.00;;;9.20;99.90;;;;;;926930;152;27395;-79
2022/09/29 05:43:33;;;;;;;3.47;2.60;;;9.30;99.90;;;;;;927609;151;27480;-79
2022/09/29 05:46:02;;;;;;;2.90;2.70;;;9.30;99.90;;;;;;943721;148;27361;-79
2022/09/29 05:48:31;;;;;;;3.80;2.77;;;9.40;99.90;;;;;;944163;148;27516;-79
2022/09/29 05:50:58;;;;;;;4.63;2.97;;;9.50;99.90;;;;;;943741;148;27308;-79
2022/09/29 05:53:24;;;;;;;3.80;3.33;;;9.60;99.90;;;;;;943334;148;27778;-79
2022/09/29 05:55:51;;;;;;;3.30;2.90;;;9.80;99.90;;;;;;943629;148;27312;-79
2022/09/29 05:58:18;;;;;;;3.07;2.77;;;9.90;99.90;;;;;;943924;148;27445;-79
2022/09/29 06:00:44;;;;;;;3.33;2.83;;;10.10;99.90;;;;;;943815;148;27365;-79
2022/09/29 06:03:11;;;;;;;2.87;2.63;;;10.30;99.90;;;;;;943656;148;27329;-79
2022/09/29 06:05:37;;;;;;;3.63;3.33;;;10.60;99.90;;;;;;944118;148;27309;-79
2022/09/29 06:08:04;;;;;;;3.17;2.87;;;10.80;99.90;;;;;;943622;148;27336;-79
2022/09/29 06:10:31;;;;;;;5.07;3.13;;;11.10;99.90;;;;;;943595;148;27325;-79
2022/09/29 06:12:57;;;;;;;3.23;2.93;;;11.50;99.90;;;;;;943754;148;27478;-79
2022/09/29 06:15:32;;;;;;;3.90;3.33;;;11.90;99.90;;;;;;944588;148;27446;-79
2022/09/29 06:18:00;;;;;;;4.43;3.47;;;12.30;99.90;;;;;;943244;148;27330;-79
2022/09/29 06:20:26;;;;;;;3.43;3.13;;;12.70;99.90;;;;;;944741;148;27442;-79
2022/09/29 06:22:52;;;;;;;2.90;2.70;;;13.10;99.90;;;;;;943844;148;27298;-79
2022/09/29 06:25:19;;;;;;;3.87;2.60;;;13.40;99.90;;;;;;943146;148;27848;-79
2022/09/29 06:27:48;;;;;;;2.80;2.57;;;13.60;99.90;;;;;;943946;148;27344;-79
2022/09/29 06:30:12;;;;;;;2.80;2.60;;;13.80;98.20;;;;;;942122;148;27453;-79
2022/09/29 06:32:39;;;;;;;3.47;2.53;;;13.80;96.40;;;;;;944284;148;27419;-79
2022/09/29 06:37:50;;;;;;;2.47;2.17;;;13.80;94.50;;;;;;943316;148;27404;-79
2022/09/29 06:40:19;;;;;;;3.73;2.63;;;13.70;94.20;;;;;;944373;148;27417;-79
2022/09/29 06:42:44;;;;;;;3.47;2.50;;;13.70;94.10;;;;;;944969;148;27349;-79
2022/09/29 06:45:10;;;;;;;3.47;2.40;;;13.60;94.20;;;;;;944946;151;27375;-79
2022/09/29 06:47:37;;;;;;;3.73;3.03;;;13.60;94.20;;;;;;945084;148;27341;-79
2022/09/29 06:50:03;;;;;;;2.83;2.60;;;13.50;94.60;;;;;;945439;149;27324;-79
2022/09/29 06:52:30;;;;;;;4.23;2.93;;;13.50;94.80;;;;;;945405;149;27430;-79
2022/09/29 06:54:57;;;;;;;5.47;2.80;;;13.60;95.20;;;;;;945392;149;27359;-79
2022/09/29 06:57:23;;;;;;;3.53;2.73;;;13.60;95.70;;;;;;945172;148;27787;-79
2022/09/29 06:59:52;;;;;;;3.83;2.93;;;13.80;96.80;;;;;;944988;151;27425;-79
2022/09/29 07:02:17;;;;;;;3.40;3.10;;;14.00;97.60;;;;;;943889;148;27289;-79
2022/09/29 07:04:43;;;;;;;5.60;2.83;;;14.20;97.10;;;;;;945388;148;27460;-79
2022/09/29 07:07:09;;;;;;;3.77;2.75;;;14.40;96.30;;;;;;945361;151;27414;-79
2022/09/29 07:09:36;;;;;;;3.17;2.70;;;14.50;94.90;;;;;;944579;151;27333;-79
2022/09/29 07:12:03;;;;;;;6.43;2.60;;;14.60;93.90;;;;;;944971;151;27317;-79
2022/09/29 07:14:29;;;;;;;3.35;2.87;;;14.70;93.70;;;;;;945110;149;27418;-79
2022/09/29 07:16:58;;;;;;;3.17;2.97;;;14.90;94.50;;;;;;944750;149;27265;-79
2022/09/29 07:19:25;;;;;;;3.60;2.70;;;15.20;95.90;;;;;;943771;148;27497;-79
2022/09/29 07:21:52;;;;;;;3.05;2.50;;;15.50;97.30;;;;;;943962;148;27434;-79
2022/09/29 07:24:18;;;;;;;3.15;2.83;;;16.10;98.70;;;;;;945056;149;27309;-79
2022/09/29 07:26:45;;;;;;;2.87;2.67;;;16.70;98.80;;;;;;947590;148;27659;-79
2022/09/29 07:29:11;;;;;;;2.80;2.60;;;17.30;96.80;;;;;;947090;148;27289;-79
2022/09/29 07:31:38;;;;;;;2.30;2.10;;;17.80;94.10;;;;;;948003;148;27328;-79
2022/09/29 07:34:05;;;;;;;4.45;2.65;;;18.30;91.60;;;;;;946314;151;27352;-79
2022/09/29 07:36:32;;;;;;;3.67;2.33;;;18.60;90.00;;;;;;945200;149;27309;-80
2022/09/29 07:38:58;;;;;;;3.27;2.62;;;19.00;87.90;;;;;;945433;151;27317;-80
2022/09/29 07:41:24;;;;;;;4.00;2.80;;;19.30;87.20;;;;;;945689;148;27365;-80
2022/09/29 07:43:52;;;;;;;4.37;2.58;;;19.50;84.80;;;;;;945700;151;27445;-80
2022/09/29 07:46:21;;;;;;;3.67;2.37;;;19.80;82.80;;;;;;944711;151;27344;-80
2022/09/29 07:48:47;;;;;;;2.92;2.30;;;19.90;80.40;;;;;;945755;149;27300;-80
2022/09/29 07:51:14;;;;;;;2.50;2.30;;;20.10;78.80;;;;;;945515;151;27320;-80
2022/09/29 07:53:40;;;;;;;2.52;2.33;;;20.20;77.10;;;;;;944740;151;27325;-80
2022/09/29 07:56:13;;;;;;;2.20;2.10;;;20.20;75.80;;;;;;945666;151;27302;-80
2022/09/29 07:58:40;;;;;;;3.85;2.55;;;20.20;74.90;;;;;;944683;151;27349;-80
2022/09/29 08:01:09;;;;;;;3.80;2.52;;;20.20;74.20;;;;;;945440;151;27856;-80
2022/09/29 08:03:33;;;;;;;3.25;2.40;;;20.20;73.60;;;;;;944042;150;27329;-80
2022/09/29 08:05:59;;;;;;;3.42;2.58;;;20.10;73.00;;;;;;945123;151;27413;-79
2022/09/29 08:08:26;;;;;;;2.92;2.65;;;20.10;72.40;;;;;;945131;151;27410;-80
2022/09/29 08:10:53;;;;;;;2.77;2.58;;;20.00;72.10;;;;;;945163;151;27941;-80
2022/09/29 08:13:19;;;;;;;3.33;2.72;;;19.90;72.10;;;;;;943536;149;27434;-80
2022/09/29 08:15:46;;;;;;;3.20;2.47;;;19.90;72.70;;;;;;945345;151;27294;-80
2022/09/29 08:18:12;;;;;;;2.35;1.98;;;20.00;73.90;;;;;;944451;149;27317;-80
2022/09/29 08:20:39;;;;;;;2.75;2.30;;;20.30;76.00;;;;;;945628;148;27320;-80
2022/09/29 08:23:06;;;;;;;2.95;2.30;;;20.60;77.20;;;;;;944849;151;27324;-80
2022/09/29 08:25:34;;;;;;;2.22;2.12;;;21.10;77.10;;;;;;944313;151;27361;-80
2022/09/29 08:27:59;;;;;;;3.40;2.42;;;21.60;76.00;;;;;;945141;151;27330;-80
2022/09/29 08:30:25;;;;;;;3.10;2.20;;;22.00;74.00;;;;;;944994;151;27279;-80
2022/09/29 08:32:54;;;;;;;2.15;2.00;;;22.30;72.20;;;;;;945444;151;27330;-80
2022/09/29 08:35:21;;;;;;;2.30;1.95;;;22.60;70.50;;;;;;945272;151;27445;-80
2022/09/29 08:37:48;;;;;;;2.27;2.02;;;22.70;68.90;;;;;;944761;151;27334;-80
2022/09/29 08:40:14;;;;;;;2.30;2.10;;;22.70;67.50;;;;;;945385;151;27415;-80
2022/09/29 08:42:52;;;;;;;2.58;2.27;;;22.70;66.60;;;;;;944294;148;27498;-80
2022/09/29 08:45:28;;;;;;;2.47;2.27;;;22.70;66.30;;;;;;943484;148;27386;-80
2022/09/29 08:47:55;;;;;;;3.02;2.50;;;22.70;66.70;;;;;;944424;148;27405;-80
2022/09/29 08:50:34;;;;;;;2.67;2.47;;;22.80;67.10;;;;;;942907;148;27443;-80
2022/09/29 08:53:08;;;;;;;2.75;2.30;;;22.90;67.00;;;;;;944381;148;27318;-80
2022/09/29 08:55:37;;;;;;;2.70;2.50;;;23.10;66.90;;;;;;944288;148;27354;-80
2022/09/29 08:58:04;;;;;;;2.80;2.08;;;23.20;66.50;;;;;;944565;148;27323;-80
2022/09/29 09:00:34;;;;;;;3.08;2.70;;;23.40;65.70;;;;;;944236;147;27307;-81
2022/09/29 09:03:08;;;;;;;2.55;2.35;;;23.60;65.00;;;;;;943650;148;27420;-81
2022/09/29 09:05:47;;;;;;;3.25;2.22;;;23.70;64.80;;;;;;940386;148;27467;-81
2022/09/29 09:08:32;;;;;;;2.15;2.05;;;23.80;64.20;;;;;;942982;148;27442;-81
2022/09/29 09:11:05;;;;;;;3.02;2.30;;;23.90;63.70;;;;;;943590;148;27377;-81
2022/09/29 09:13:35;;;;;;;2.60;2.40;;;24.10;63.60;;;;;;941840;148;27430;-81
2022/09/29 09:16:05;;;;;;;2.52;2.30;;;24.20;63.40;;;;;;943287;148;27404;-81
2022/09/29 09:18:49;;;;;;;2.02;1.80;;;24.40;63.60;;;;;;943973;148;27365;-82
2022/09/29 09:21:42;;;;;;;2.35;2.15;;;24.70;63.90;;;;;;942820;148;28009;-82
2022/09/29 09:24:26;;;;;;;2.47;2.15;;;25.10;63.90;;;;;;943890;148;27448;-80
2022/09/29 09:26:53;;;;;;;2.12;1.92;;;25.40;63.00;;;;;;943481;148;27273;-81
2022/09/29 09:29:23;;;;;;;3.42;2.60;;;25.70;61.20;;;;;;943985;148;27341;-81
2022/09/29 09:31:52;;;;;;;2.20;2.02;;;25.70;59.30;;;;;;943873;148;27416;-81
2022/09/29 09:34:30;;;;;;;3.55;2.30;;;25.70;58.60;;;;;;940072;148;28317;-81
2022/09/29 09:36:56;;;;;;;3.75;2.33;;;25.50;57.50;;;;;;944447;148;27410;-81
2022/09/29 09:39:32;;;;;;;2.70;2.20;;;25.30;57.30;;;;;;943167;148;27319;-81
2022/09/29 09:41:58;;;;;;;3.37;2.65;;;25.00;57.60;;;;;;943374;148;27341;-80
2022/09/29 09:44:40;;;;;;;2.47;2.27;;;24.70;57.50;;;;;;944975;151;28740;-80
2022/09/29 09:47:27;;;;;;;2.12;2.00;;;24.50;57.50;;;;;;944799;149;27488;-80
2022/09/29 09:49:54;;;;;;;5.40;2.77;;;24.20;57.90;;;;;;944653;151;27285;-81
2022/09/29 09:52:20;;;;;;;4.90;2.83;;;24.00;58.10;;;;;;943396;149;27353;-81
2022/09/29 09:54:47;;;;;;;3.42;3.02;;;23.80;58.10;;;;;;914296;153;27545;-81
2022/09/29 09:57:32;;;;;;;3.08;2.87;;;23.60;58.00;;;;;;937446;150;27433;-81
2022/09/29 10:00:07;;;;;;;2.85;2.40;;;23.50;57.70;;;;;;933889;152;27337;-80
2022/09/29 10:02:31;;;;;;;2.98;2.50;;;23.30;57.90;;;;;;933833;150;27325;-80
2022/09/29 10:04:58;;;;;;;3.27;2.77;;;23.10;58.20;;;;;;935227;152;27311;-80
2022/09/29 10:07:24;;;;;;;3.55;2.67;;;23.00;58.00;;;;;;937910;153;27464;-80
2022/09/29 10:09:51;;;;;;;3.22;2.40;;;22.90;58.10;;;;;;944800;151;27439;-81
2022/09/29 10:12:17;;;;;;;3.12;2.27;;;22.70;58.00;;;;;;945512;151;27420;-81
2022/09/29 10:14:50;;;;;;;3.30;2.60;;;22.60;58.10;;;;;;945381;151;27335;-81
2022/09/29 10:17:17;;;;;;;4.87;2.55;;;22.40;58.10;;;;;;944943;151;27415;-81
2022/09/29 10:19:55;;;;;;;2.67;2.42;;;22.30;58.30;;;;;;945279;149;27807;-81
2022/09/29 10:22:22;;;;;;;3.15;2.20;;;22.10;58.30;;;;;;944611;151;27432;-81
2022/09/29 10:24:48;;;;;;;2.50;2.30;;;22.00;58.60;;;;;;945041;151;27329;-81
2022/09/29 10:27:18;;;;;;;3.60;2.70;;;21.90;58.80;;;;;;944604;151;27274;-81
2022/09/29 10:29:51;;;;;;;2.80;2.40;;;21.80;58.90;;;;;;944356;151;27409;-81
2022/09/29 10:32:16;;;;;;;2.45;2.15;;;21.80;59.10;;;;;;944431;151;27438;-81
2022/09/29 10:34:46;;;;;;;2.65;2.45;;;21.70;59.00;;;;;;944396;151;27286;-81
2022/09/29 10:37:24;;;;;;;3.30;2.30;;;21.60;58.90;;;;;;944715;151;27402;-81
2022/09/29 10:39:51;;;;;;;2.92;1.98;;;21.50;58.90;;;;;;945036;151;27462;-81
2022/09/29 10:42:36;;;;;;;2.62;2.27;;;21.40;58.90;;;;;;942502;151;27355;-81
2022/09/29 10:45:12;;;;;;;2.42;2.22;;;21.30;59.00;;;;;;915231;153;27367;-81
2022/09/29 10:47:38;;;;;;;2.58;2.37;;;21.20;59.10;;;;;;909889;154;27419;-81
2022/09/29 10:50:23;;;;;;;2.67;2.47;;;21.20;59.40;;;;;;909288;153;27394;-81
2022/09/29 10:52:55;;;;;;;3.55;2.22;;;21.10;59.40;;;;;;908499;153;27445;-80
2022/09/29 10:55:21;;;;;;;2.98;2.42;;;21.00;59.60;;;;;;934423;150;27312;-80
2022/09/29 10:57:48;;;;;;;2.20;2.02;;;21.00;59.90;;;;;;924796;153;27297;-80
2022/09/29 11:00:33;;;;;;;2.58;2.17;;;20.90;60.00;;;;;;945147;149;27898;-80
2022/09/29 11:03:08;;;;;;;3.47;2.30;;;20.90;60.00;;;;;;945340;148;27337;-80
2022/09/29 11:05:35;;;;;;;2.00;1.90;;;20.90;60.00;;;;;;942013;148;27349;-81
2022/09/29 11:08:02;;;;;;;2.17;1.95;;;20.90;59.80;;;;;;946050;148;27332;-81
2022/09/29 11:10:31;;;;;;;3.55;2.20;;;20.90;59.90;;;;;;945024;148;27360;-81
2022/09/29 11:12:59;;;;;;;2.22;1.77;;;20.90;59.70;;;;;;945415;148;27346;-81
2022/09/29 11:15:27;;;;;;;3.12;2.15;;;20.90;59.70;;;;;;944873;151;27785;-81
2022/09/29 11:17:53;;;;;;;2.83;2.10;;;21.00;59.70;;;;;;945076;148;27351;-81
2022/09/29 11:20:20;;;;;;;2.12;1.92;;;21.00;59.60;;;;;;945471;148;27425;-81
2022/09/29 11:23:05;;;;;;;2.67;1.90;;;21.00;59.70;;;;;;945342;149;27371;-81
2022/09/29 11:25:32;;;;;;;2.67;1.90;;;21.00;59.60;;;;;;944615;149;27516;-81
2022/09/29 11:28:22;;;;;;;1.77;1.62;;;21.00;59.90;;;;;;943471;149;27382;-81
2022/09/29 11:30:52;;;;;;;1.50;1.40;;;21.00;59.60;;;;;;931865;151;27440;-81
2022/09/29 11:33:25;;;;;;;1.60;1.50;;;21.00;59.70;;;;;;939739;151;27293;-81
2022/09/29 11:35:51;;;;;;;2.45;1.27;;;21.00;59.40;;;;;;945443;148;27927;-81
2022/09/29 11:38:36;;;;;;;1.65;1.42;;;21.00;58.70;;;;;;945577;148;27433;-81
2022/09/29 11:41:08;;;;;;;2.15;1.75;;;21.00;59.00;;;;;;945650;151;27443;-81
2022/09/29 11:43:47;;;;;;;3.05;1.25;;;21.00;59.10;;;;;;944057;148;27448;-81
2022/09/29 11:46:51;;;;;;;1.85;1.35;;;21.10;58.80;;;;;;945198;151;27278;-81
2022/09/29 11:49:38;;;;;;;1.62;1.30;;;21.20;58.70;;;;;;945349;148;27398;-81
2022/09/29 11:52:23;;;;;;;2.47;1.10;;;21.30;58.90;;;;;;944916;149;27322;-81
2022/09/29 11:54:59;;;;;;;2.00;1.47;;;21.30;58.60;;;;;;945868;151;27297;-81
2022/09/29 11:57:44;;;;;;;2.30;1.85;;;21.40;58.40;;;;;;943848;151;27365;-81
2022/09/29 12:00:13;;;;;;;2.55;1.80;;;21.40;58.00;;;;;;945036;148;27434;-81
2022/09/29 12:03:01;;;;;;;2.33;1.72;;;21.30;58.00;;;;;;945174;151;27789;-81
2022/09/29 12:05:48;;;;;;;2.17;1.98;;;21.30;58.10;;;;;;944084;149;27455;-81
2022/09/29 12:08:26;;;;;;;5.30;1.82;;;21.30;58.20;;;;;;944824;149;27364;-82
2022/09/29 12:10:52;;;;;;;1.57;1.47;;;21.30;58.10;;;;;;944716;151;27383;-81
2022/09/29 12:13:33;;;;;;;1.92;1.60;;;21.30;58.30;;;;;;944910;151;27391;-82
2022/09/29 12:16:02;;;;;;;2.75;1.70;;;21.30;58.40;;;;;;944256;149;27284;-82
2022/09/29 12:18:32;;;;;;;2.12;1.92;;;21.30;58.50;;;;;;944174;149;27341;-82
2022/09/29 12:20:59;;;;;;;2.62;1.90;;;21.30;58.20;;;;;;945080;149;27345;-82
2022/09/29 12:23:25;;;;;;;3.25;1.95;;;21.30;58.00;;;;;;945125;151;27394;-82
2022/09/29 12:25:55;;;;;;;2.22;1.77;;;21.30;57.90;;;;;;944998;149;27333;-82
2022/09/29 12:28:21;;;;;;;2.80;2.30;;;21.20;57.70;;;;;;942674;149;27298;-82
2022/09/29 12:30:54;;;;;;;2.50;1.70;;;21.20;57.50;;;;;;945244;151;27462;-82
2022/09/29 12:33:20;;;;;;;2.50;1.60;;;21.10;57.40;;;;;;944767;150;27390;-81
2022/09/29 12:36:42;;;;;;;2.17;1.87;;;21.00;57.30;;;;;;945646;151;27870;-81
2022/09/29 12:38:35;;;;;;;5.08;2.05;;;21.00;57.50;;;;;;942071;148;27442;-81
2022/09/29 12:41:13;;;;;;;1.87;1.52;;;20.90;57.50;;;;;;945446;151;27300;-81
2022/09/29 12:43:45;;;;;;;4.05;1.75;;;20.90;57.60;;;;;;945154;151;27454;-81
2022/09/29 12:46:27;;;;;;;1.90;1.40;;;20.90;57.80;;;;;;959802;146;27921;-81
2022/09/29 12:49:20;;;;;;;1.57;1.25;;;20.80;57.60;;;;;;960404;146;27280;-81
2022/09/29 12:51:47;;;;;;;2.25;1.40;;;20.80;57.50;;;;;;960932;146;27324;-81
2022/09/29 12:54:38;;;;;;;3.45;1.30;;;20.80;57.30;;;;;;961476;146;27299;-81
2022/09/29 12:57:04;;;;;;;1.37;1.20;;;20.70;57.00;;;;;;961283;146;27363;-80
2022/09/29 12:59:36;;;;;;;1.57;1.30;;;20.60;56.90;;;;;;960309;146;27443;-80
2022/09/29 13:02:01;;;;;;;1.62;1.17;;;20.60;56.80;;;;;;961339;146;27304;-80
2022/09/29 13:04:39;;;;;;;4.28;1.15;;;20.50;57.00;;;;;;961197;146;27413;-80
2022/09/29 13:07:11;;;;;;;0.70;0.70;;;20.50;56.90;;;;;;961575;146;27320;-80